createdAt,value
2023-05-09T00:02:34.863Z,12.30
2023-05-09T00:05:19.658Z,12.73
2023-05-09T00:08:02.795Z,12.53
2023-05-09T00:10:47.992Z,12.83
2023-05-09T00:13:31.241Z,14.73
2023-05-09T00:16:14.569Z,11.90
2023-05-09T00:18:58.102Z,12.07
2023-05-09T00:21:41.303Z,13.13
2023-05-09T00:24:24.528Z,12.43
2023-05-09T00:27:09.329Z,13.83
2023-05-09T00:29:52.592Z,13.47
2023-05-09T00:32:38.278Z,14.83
2023-05-09T00:35:21.336Z,12.77
2023-05-09T00:38:05.873Z,12.97
2023-05-09T00:40:48.943Z,13.33
2023-05-09T00:43:33.637Z,12.77
2023-05-09T00:46:17.198Z,15.23
2023-05-09T00:49:00.991Z,13.40
2023-05-09T00:51:44.310Z,12.47
2023-05-09T00:54:27.649Z,13.23
2023-05-09T00:57:12.435Z,12.10
2023-05-09T00:59:57.170Z,14.17
2023-05-09T01:02:41.090Z,13.00
2023-05-09T01:05:27.274Z,13.50
2023-05-09T01:08:19.443Z,16.23
2023-05-09T01:11:10.786Z,12.93
2023-05-09T01:14:04.531Z,13.60
2023-05-09T01:16:57.179Z,13.97
2023-05-09T01:20:11.198Z,12.77
2023-05-09T01:23:02.600Z,13.83
2023-05-09T01:25:59.360Z,13.73
2023-05-09T01:29:06.465Z,13.43
2023-05-09T01:31:52.260Z,13.67
2023-05-09T01:34:36.726Z,15.20
2023-05-09T01:37:23.556Z,15.57
2023-05-09T01:40:11.887Z,13.30
2023-05-09T01:43:03.758Z,13.57
2023-05-09T01:45:47.869Z,13.63
2023-05-09T01:48:33.104Z,14.77
2023-05-09T01:51:19.575Z,13.00
2023-05-09T01:54:03.255Z,19.83
2023-05-09T01:56:47.473Z,21.07
2023-05-09T01:59:40.106Z,16.23
2023-05-09T02:02:31.343Z,17.07
2023-05-09T02:05:21.925Z,18.13
2023-05-09T02:08:05.302Z,17.37
2023-05-09T02:10:49.236Z,18.87
2023-05-09T02:13:33.197Z,14.97
2023-05-09T02:16:17.425Z,21.07
2023-05-09T02:19:00.693Z,15.37
2023-05-09T02:21:45.552Z,16.97
2023-05-09T02:24:34.533Z,15.93
2023-05-09T02:27:20.956Z,14.60
2023-05-09T02:30:09.090Z,14.40
2023-05-09T02:32:55.051Z,15.37
2023-05-09T02:35:38.579Z,14.77
2023-05-09T02:38:23.713Z,16.57
2023-05-09T02:41:08.162Z,15.23
2023-05-09T02:43:51.387Z,17.53
2023-05-09T02:46:35.084Z,25.83
2023-05-09T02:49:31.490Z,16.40
2023-05-09T02:52:15.584Z,16.20
2023-05-09T02:55:00.155Z,16.00
2023-05-09T02:57:44.133Z,15.03
2023-05-09T03:00:27.299Z,16.43
2023-05-09T03:03:11.024Z,18.27
2023-05-09T03:05:54.292Z,17.70
2023-05-09T03:08:37.400Z,33.50
2023-05-09T03:11:39.135Z,26.43
2023-05-09T03:14:22.340Z,20.43
2023-05-09T03:17:05.506Z,14.60
2023-05-09T03:19:50.497Z,21.17
2023-05-09T03:22:33.865Z,15.63
2023-05-09T03:25:17.340Z,15.30
2023-05-09T03:28:02.678Z,17.23
2023-05-09T03:30:46.071Z,15.50
2023-05-09T03:33:29.388Z,17.97
2023-05-09T03:36:13.036Z,15.23
2023-05-09T03:38:57.982Z,16.80
2023-05-09T03:41:41.935Z,19.03
2023-05-09T03:44:28.113Z,31.93
2023-05-09T03:47:11.345Z,16.70
2023-05-09T03:49:54.999Z,18.93
2023-05-09T03:52:38.508Z,17.90
2023-05-09T03:55:24.260Z,23.80
2023-05-09T03:58:08.756Z,23.53
2023-05-09T04:00:53.839Z,20.00
2023-05-09T04:03:39.381Z,14.70
2023-05-09T04:06:22.958Z,17.70
2023-05-09T04:09:09.339Z,14.50
2023-05-09T04:11:52.769Z,14.43
2023-05-09T04:14:35.993Z,15.23
2023-05-09T04:17:20.643Z,16.03
2023-05-09T04:20:05.147Z,15.70
2023-05-09T04:22:49.026Z,20.53
2023-05-09T04:25:32.241Z,14.73
2023-05-09T04:28:15.766Z,20.17
2023-05-09T04:30:59.297Z,15.90
2023-05-09T04:33:44.004Z,12.37
2023-05-09T04:36:27.690Z,22.37
2023-05-09T04:39:10.895Z,15.73
2023-05-09T04:41:54.081Z,14.70
2023-05-09T04:44:37.552Z,12.50
2023-05-09T04:47:20.688Z,12.17
2023-05-09T04:50:05.818Z,16.13
2023-05-09T04:52:48.930Z,12.33
2023-05-09T04:55:33.338Z,12.27
2023-05-09T04:58:17.420Z,14.70
2023-05-09T05:01:00.602Z,12.97
2023-05-09T05:03:44.043Z,11.73
2023-05-09T05:06:28.682Z,11.53
2023-05-09T05:09:12.137Z,15.27
2023-05-09T05:12:01.838Z,9.63
2023-05-09T05:14:46.242Z,9.13
2023-05-09T05:17:30.468Z,9.87
2023-05-09T05:20:14.215Z,11.77
2023-05-09T05:23:01.322Z,9.20
2023-05-09T05:25:44.456Z,8.93
2023-05-09T05:28:27.638Z,7.50
2023-05-09T05:31:11.029Z,7.47
2023-05-09T05:33:54.682Z,8.27
2023-05-09T05:36:37.851Z,11.40
2023-05-09T05:39:22.842Z,6.53
2023-05-09T05:42:06.318Z,8.03
2023-05-09T05:44:52.566Z,7.20
2023-05-09T05:47:36.857Z,7.37
2023-05-09T05:50:21.129Z,7.30
2023-05-09T05:53:04.391Z,9.60
2023-05-09T05:55:49.348Z,7.40
2023-05-09T05:58:33.081Z,6.30
2023-05-09T06:01:16.536Z,6.13
2023-05-09T06:03:59.816Z,6.90
2023-05-09T06:06:43.702Z,6.63
2023-05-09T06:09:26.933Z,6.63
2023-05-09T06:12:16.622Z,7.43
2023-05-09T06:15:00.154Z,7.30
2023-05-09T06:17:43.585Z,6.87
2023-05-09T06:20:27.503Z,7.83
2023-05-09T06:23:11.032Z,13.37
2023-05-09T06:25:54.392Z,6.87
2023-05-09T06:28:38.959Z,6.43
2023-05-09T06:31:23.518Z,6.77
2023-05-09T06:34:08.595Z,9.43
2023-05-09T06:36:52.639Z,8.17
2023-05-09T06:39:35.936Z,6.97
2023-05-09T06:42:20.483Z,6.63
2023-05-09T06:45:05.773Z,6.77
2023-05-09T06:47:48.943Z,6.70
2023-05-09T06:50:33.112Z,7.27
2023-05-09T06:53:17.250Z,8.57
2023-05-09T06:56:00.585Z,8.30
2023-05-09T06:58:44.136Z,8.00
2023-05-09T07:01:29.348Z,8.53
2023-05-09T07:04:15.847Z,8.13
2023-05-09T07:07:09.872Z,9.10
2023-05-09T07:10:07.252Z,7.20
2023-05-09T07:12:54.193Z,8.27
2023-05-09T07:15:42.243Z,7.40
2023-05-09T07:18:27.706Z,8.37
2023-05-09T07:21:11.698Z,7.47
2023-05-09T07:23:54.969Z,7.73
2023-05-09T07:26:38.143Z,7.63
2023-05-09T07:29:21.225Z,7.67
2023-05-09T07:32:04.584Z,6.90
2023-05-09T07:34:49.373Z,7.00
2023-05-09T07:37:35.008Z,6.13
2023-05-09T07:40:23.883Z,7.43
2023-05-09T07:43:07.153Z,6.73
2023-05-09T07:45:50.760Z,8.57
2023-05-09T07:48:33.879Z,7.77
2023-05-09T07:51:21.742Z,6.90
2023-05-09T07:54:04.937Z,7.30
2023-05-09T07:56:52.226Z,7.70
2023-05-09T07:59:35.329Z,7.57
2023-05-09T08:02:19.514Z,7.70
2023-05-09T08:05:02.609Z,6.97
2023-05-09T08:07:47.479Z,6.87
2023-05-09T08:10:32.716Z,6.97
2023-05-09T08:13:15.977Z,7.40
2023-05-09T08:15:59.269Z,7.20
2023-05-09T08:18:42.438Z,7.90
2023-05-09T08:21:26.633Z,12.37
2023-05-09T08:24:11.212Z,7.50
2023-05-09T08:26:56.777Z,8.03
2023-05-09T08:29:40.201Z,7.20
2023-05-09T08:32:23.360Z,8.17
2023-05-09T08:35:08.956Z,7.73
2023-05-09T08:37:52.891Z,7.43
2023-05-09T08:40:38.946Z,7.40
2023-05-09T08:43:25.359Z,7.37
2023-05-09T08:46:10.681Z,8.63
2023-05-09T08:48:54.986Z,8.10
2023-05-09T08:51:40.529Z,11.53
2023-05-09T08:54:24.339Z,8.33
2023-05-09T08:57:09.768Z,7.93
2023-05-09T08:59:53.723Z,8.97
2023-05-09T09:02:37.255Z,6.67
2023-05-09T09:05:40.129Z,5.67
2023-05-09T09:08:24.492Z,8.37
2023-05-09T09:11:09.151Z,6.53
2023-05-09T09:13:55.522Z,8.90
2023-05-09T09:16:40.151Z,5.43
2023-05-09T09:19:28.902Z,14.40
2023-05-09T09:22:17.091Z,12.00
2023-05-09T09:25:00.628Z,15.33
2023-05-09T09:27:43.826Z,11.07
2023-05-09T09:30:29.500Z,8.67
2023-05-09T09:33:21.761Z,7.80
2023-05-09T09:36:07.628Z,7.77
2023-05-09T09:38:51.895Z,8.53
2023-05-09T09:41:36.378Z,7.90
2023-05-09T09:44:20.649Z,8.87
2023-05-09T09:47:05.253Z,7.53
2023-05-09T09:49:48.781Z,7.27
2023-05-09T09:52:32.071Z,10.53
2023-05-09T09:55:15.231Z,10.40
2023-05-09T09:58:00.234Z,12.83
2023-05-09T10:00:47.029Z,10.13
2023-05-09T10:03:39.272Z,10.77
2023-05-09T10:06:22.547Z,8.90
2023-05-09T10:09:05.929Z,6.80
2023-05-09T10:11:51.602Z,8.53
2023-05-09T10:14:36.596Z,7.83
2023-05-09T10:17:23.175Z,5.90
2023-05-09T10:20:10.226Z,7.23
2023-05-09T10:22:57.428Z,7.87
2023-05-09T10:25:44.181Z,8.30
2023-05-09T10:28:34.487Z,7.50
2023-05-09T10:31:24.044Z,8.47
2023-05-09T10:34:11.614Z,7.63
2023-05-09T10:36:57.655Z,7.53
2023-05-09T10:39:42.284Z,9.87
2023-05-09T10:42:26.425Z,9.20
2023-05-09T10:45:11.514Z,9.80
2023-05-09T10:47:57.783Z,15.93
2023-05-09T10:50:42.771Z,7.80
2023-05-09T10:53:42.190Z,8.00
2023-05-09T10:56:27.950Z,8.77
2023-05-09T10:59:37.446Z,9.37
2023-05-09T11:02:21.973Z,9.20
2023-05-09T11:05:15.619Z,8.20
2023-05-09T11:08:20.382Z,9.60
2023-05-09T11:11:09.454Z,9.37
2023-05-09T11:13:59.750Z,9.00
2023-05-09T11:16:58.576Z,8.23
2023-05-09T11:20:02.157Z,9.70
2023-05-09T11:22:47.620Z,9.13
2023-05-09T11:25:41.513Z,9.93
2023-05-09T11:28:33.619Z,8.63
2023-05-09T11:31:18.909Z,9.60
2023-05-09T11:34:05.055Z,8.67
2023-05-09T11:36:49.857Z,12.33
2023-05-09T11:39:33.362Z,9.20
2023-05-09T11:42:16.824Z,9.37
2023-05-09T11:45:05.290Z,9.40
2023-05-09T11:47:49.708Z,15.10
2023-05-09T11:50:33.604Z,10.37
2023-05-09T11:53:19.256Z,8.83
2023-05-09T11:56:05.140Z,9.60
2023-05-09T11:58:51.538Z,9.00
2023-05-09T12:01:37.447Z,13.13
2023-05-09T12:04:20.749Z,10.17
2023-05-09T12:07:04.022Z,13.93
2023-05-09T12:09:50.216Z,10.13
2023-05-09T12:12:35.349Z,9.60
2023-05-09T12:15:20.192Z,10.83
2023-05-09T12:18:06.473Z,9.53
2023-05-09T12:20:51.501Z,11.77
2023-05-09T12:23:36.805Z,8.50
2023-05-09T12:26:20.159Z,14.90
2023-05-09T12:29:03.609Z,9.80
2023-05-09T12:31:55.412Z,9.00
2023-05-09T12:34:40.233Z,9.63
2023-05-09T12:37:24.076Z,9.33
2023-05-09T12:40:12.593Z,8.63
2023-05-09T12:43:02.675Z,9.90
2023-05-09T12:45:45.995Z,9.40
2023-05-09T12:48:30.008Z,10.00
2023-05-09T12:51:21.034Z,23.10
2023-05-09T12:54:06.060Z,12.23
2023-05-09T12:56:50.217Z,9.33
2023-05-09T12:59:33.520Z,8.83
2023-05-09T13:02:16.713Z,13.37
2023-05-09T13:05:11.082Z,10.53
2023-05-09T13:08:01.309Z,11.63
2023-05-09T13:11:07.851Z,13.90
2023-05-09T13:13:58.067Z,9.77
2023-05-09T13:16:41.435Z,10.17
2023-05-09T13:19:24.700Z,9.87
2023-05-09T13:22:09.461Z,9.37
2023-05-09T13:24:55.312Z,9.43
2023-05-09T13:27:40.147Z,10.90
2023-05-09T13:30:23.395Z,9.80
2023-05-09T13:33:24.573Z,10.53
2023-05-09T13:36:08.940Z,15.67
2023-05-09T13:38:52.102Z,9.73
2023-05-09T13:41:38.118Z,9.20
2023-05-09T13:44:21.465Z,27.20
2023-05-09T13:47:05.011Z,9.03
2023-05-09T13:49:48.179Z,9.07
2023-05-09T13:52:31.337Z,8.60
2023-05-09T13:55:14.504Z,14.23
2023-05-09T13:58:01.647Z,10.17
2023-05-09T14:00:45.092Z,9.10
2023-05-09T14:03:28.699Z,9.27
2023-05-09T14:06:15.354Z,9.40
2023-05-09T14:08:59.022Z,9.50
2023-05-09T14:11:42.981Z,9.37
2023-05-09T14:14:27.921Z,9.40
2023-05-09T14:17:13.586Z,9.13
2023-05-09T14:19:56.829Z,9.07
2023-05-09T14:22:40.575Z,8.23
2023-05-09T14:25:24.078Z,9.03
2023-05-09T14:28:09.589Z,8.93
2023-05-09T14:30:57.615Z,8.37
2023-05-09T14:33:41.019Z,7.23
2023-05-09T14:36:24.561Z,7.83
2023-05-09T14:39:07.966Z,9.43
2023-05-09T14:41:52.428Z,10.37
2023-05-09T14:44:35.665Z,7.97
2023-05-09T14:47:20.429Z,7.80
2023-05-09T14:50:04.607Z,8.03
2023-05-09T14:52:47.955Z,7.73
2023-05-09T14:55:31.491Z,7.90
2023-05-09T14:58:16.194Z,11.27
2023-05-09T15:00:59.872Z,7.67
2023-05-09T15:03:46.896Z,10.17
2023-05-09T15:06:30.510Z,8.83
2023-05-09T15:09:14.172Z,7.77
2023-05-09T15:11:58.475Z,11.50
2023-05-09T15:14:41.840Z,6.83
2023-05-09T15:17:25.040Z,7.87
2023-05-09T15:20:10.863Z,9.60
2023-05-09T15:22:54.184Z,8.07
2023-05-09T15:25:38.378Z,7.83
2023-05-09T15:28:21.564Z,6.63
2023-05-09T15:31:04.962Z,8.60
2023-05-09T15:33:48.307Z,7.10
2023-05-09T15:36:33.914Z,7.60
2023-05-09T15:39:17.258Z,7.33
2023-05-09T15:42:00.529Z,9.93
2023-05-09T15:44:53.884Z,7.97
2023-05-09T15:47:37.534Z,7.10
2023-05-09T15:50:30.187Z,8.80
2023-05-09T15:53:15.698Z,7.77
2023-05-09T15:55:59.414Z,15.03
2023-05-09T15:58:42.708Z,7.00
2023-05-09T16:01:25.943Z,8.50
2023-05-09T16:04:09.359Z,8.60
2023-05-09T16:06:56.805Z,7.93
2023-05-09T16:09:43.597Z,7.23
2023-05-09T16:12:27.214Z,13.07
2023-05-09T16:15:12.764Z,12.40
2023-05-09T16:17:56.738Z,7.80
2023-05-09T16:20:41.462Z,7.30
2023-05-09T16:23:26.132Z,8.20
2023-05-09T16:26:15.088Z,7.63
2023-05-09T16:28:59.521Z,9.63
2023-05-09T16:31:45.048Z,8.33
2023-05-09T16:34:28.468Z,8.00
2023-05-09T16:37:12.060Z,8.10
2023-05-09T16:39:55.228Z,8.00
2023-05-09T16:42:42.789Z,8.17
2023-05-09T16:45:26.763Z,8.20
2023-05-09T16:48:10.269Z,7.80
2023-05-09T16:50:54.262Z,8.50
2023-05-09T16:53:37.790Z,7.67
2023-05-09T16:56:21.815Z,8.00
2023-05-09T16:59:06.415Z,6.80
2023-05-09T17:01:50.089Z,7.57
2023-05-09T17:04:34.754Z,8.10
2023-05-09T17:07:19.467Z,7.60
2023-05-09T17:10:02.665Z,7.70
2023-05-09T17:12:45.977Z,7.03
2023-05-09T17:15:30.652Z,7.83
2023-05-09T17:18:19.291Z,7.67
2023-05-09T17:21:10.694Z,12.17
2023-05-09T17:23:56.739Z,8.10
2023-05-09T17:26:41.727Z,8.90
2023-05-09T17:29:27.799Z,9.00
2023-05-09T17:32:13.403Z,8.97
2023-05-09T17:35:06.453Z,8.20
2023-05-09T17:37:56.394Z,8.43
2023-05-09T17:40:43.430Z,8.60
2023-05-09T17:43:32.082Z,8.43
2023-05-09T17:49:17.600Z,8.93
2023-05-09T17:52:04.249Z,8.30
2023-05-09T17:54:48.250Z,8.53
2023-05-09T17:57:36.153Z,9.30
2023-05-09T18:00:24.745Z,8.23
2023-05-09T18:03:09.317Z,7.67
2023-05-09T18:06:03.719Z,8.47
2023-05-09T18:08:48.617Z,8.33
2023-05-09T18:11:59.695Z,7.60
2023-05-09T18:14:43.375Z,8.57
2023-05-09T18:17:26.821Z,8.40
2023-05-09T18:20:11.320Z,9.40
2023-05-09T18:22:57.738Z,8.30
2023-05-09T18:25:42.443Z,8.90
2023-05-09T18:28:27.908Z,9.80
2023-05-09T18:31:11.939Z,11.07
2023-05-09T18:33:57.951Z,10.43
2023-05-09T18:36:41.208Z,9.90
2023-05-09T18:39:26.039Z,10.07
2023-05-09T18:42:09.397Z,9.73
2023-05-09T18:44:54.239Z,11.47
2023-05-09T18:47:38.294Z,9.97
2023-05-09T18:50:22.054Z,9.20
2023-05-09T18:53:05.498Z,8.70
2023-05-09T18:55:50.672Z,9.47
2023-05-09T18:58:36.428Z,9.73
2023-05-09T19:01:20.167Z,12.90
2023-05-09T19:04:04.546Z,11.07
2023-05-09T19:06:48.486Z,9.97
2023-05-09T19:09:34.258Z,10.23
2023-05-09T19:12:18.976Z,10.03
2023-05-09T19:15:02.487Z,14.07
2023-05-09T19:17:46.021Z,9.07
2023-05-09T19:20:32.129Z,11.47
2023-05-09T19:23:15.781Z,10.87
2023-05-09T19:25:59.262Z,10.73
2023-05-09T19:28:44.672Z,10.47
2023-05-09T19:31:28.294Z,10.83
2023-05-09T19:34:12.550Z,10.40
2023-05-09T19:36:56.878Z,10.60
2023-05-09T19:39:40.409Z,11.77
2023-05-09T19:42:23.636Z,9.97
2023-05-09T19:45:10.768Z,10.50
2023-05-09T19:47:57.596Z,10.53
2023-05-09T19:50:43.416Z,10.27
2023-05-09T19:53:26.954Z,11.67
2023-05-09T19:56:10.376Z,10.63
2023-05-09T19:58:53.863Z,10.67
2023-05-09T20:01:41.106Z,10.80
2023-05-09T20:04:24.646Z,10.20
2023-05-09T20:07:09.897Z,10.50
2023-05-09T20:09:53.221Z,10.53
2023-05-09T20:12:36.363Z,10.70
2023-05-09T20:15:19.587Z,10.63
2023-05-09T20:18:07.153Z,10.97
2023-05-09T20:20:50.422Z,12.73
2023-05-09T20:23:34.711Z,10.07
2023-05-09T20:26:17.956Z,10.83
2023-05-09T20:29:01.638Z,10.30
2023-05-09T20:31:44.906Z,10.90
2023-05-09T20:34:34.050Z,11.50
2023-05-09T20:37:18.685Z,11.30
2023-05-09T20:40:06.528Z,11.33
2023-05-09T20:42:50.465Z,11.67
2023-05-09T20:45:37.460Z,11.57
2023-05-09T20:48:22.946Z,11.27
2023-05-09T20:51:07.809Z,11.07
2023-05-09T20:53:51.251Z,13.80
2023-05-09T20:56:35.779Z,11.83
2023-05-09T20:59:26.483Z,12.60
2023-05-09T21:02:10.646Z,12.07
2023-05-09T21:04:53.873Z,12.57
2023-05-09T21:07:38.830Z,13.20
2023-05-09T21:10:22.650Z,13.63
2023-05-09T21:13:05.884Z,15.80
2023-05-09T21:15:50.971Z,15.67
2023-05-09T21:18:35.128Z,13.60
2023-05-09T21:21:18.354Z,14.27
2023-05-09T21:24:11.331Z,15.57
2023-05-09T21:26:54.539Z,15.63
2023-05-09T21:29:37.690Z,16.97
2023-05-09T21:32:21.022Z,14.63
2023-05-09T21:35:04.488Z,15.77
2023-05-09T21:37:48.628Z,14.43
2023-05-09T21:40:33.356Z,17.13
2023-05-09T21:43:18.262Z,15.37
2023-05-09T21:46:01.558Z,14.23
2023-05-09T21:48:45.304Z,15.13
2023-05-09T21:51:28.577Z,14.30
2023-05-09T21:54:12.049Z,15.70
2023-05-09T21:56:58.158Z,14.73
2023-05-09T21:59:41.428Z,14.27
2023-05-09T22:02:24.775Z,13.87
2023-05-09T22:05:08.883Z,14.57
2023-05-09T22:07:52.683Z,15.90
2023-05-09T22:10:37.824Z,13.03
2023-05-09T22:13:22.638Z,12.87
2023-05-09T22:16:07.279Z,13.23
2023-05-09T22:18:50.948Z,13.10
2023-05-09T22:21:34.158Z,13.03
2023-05-09T22:24:17.533Z,14.20
2023-05-09T22:27:00.753Z,13.43
2023-05-09T22:29:47.837Z,13.83
2023-05-09T22:32:31.105Z,13.20
2023-05-09T22:35:14.620Z,15.70
2023-05-09T22:37:58.051Z,16.63
2023-05-09T22:40:41.740Z,16.93
2023-05-09T22:43:28.713Z,16.70
2023-05-09T22:46:18.459Z,17.50
2023-05-09T22:49:01.687Z,16.77
2023-05-09T22:51:44.968Z,17.83
2023-05-09T22:54:28.163Z,15.73
2023-05-09T22:57:11.459Z,17.80
2023-05-09T22:59:54.735Z,17.30
2023-05-09T23:02:39.707Z,16.37
2023-05-09T23:05:22.917Z,17.33
2023-05-09T23:08:06.191Z,15.83
2023-05-09T23:10:49.478Z,18.67
2023-05-09T23:13:32.760Z,16.13
2023-05-09T23:16:16.350Z,16.43
2023-05-09T23:19:00.936Z,16.63
2023-05-09T23:21:44.060Z,16.37
2023-05-09T23:24:27.396Z,15.73
2023-05-09T23:27:11.397Z,15.27
2023-05-09T23:29:54.577Z,14.93
2023-05-09T23:32:38.047Z,15.57
2023-05-09T23:35:22.754Z,16.33
2023-05-09T23:38:05.907Z,14.43
2023-05-09T23:40:49.603Z,14.70
2023-05-09T23:43:33.578Z,16.37
2023-05-09T23:46:17.179Z,16.77
2023-05-09T23:49:00.377Z,16.37
2023-05-09T23:51:44.874Z,17.00
2023-05-09T23:54:28.801Z,17.57
2023-05-09T23:57:12.358Z,16.47
2023-05-09T23:59:55.503Z,17.50
